sensor_id;sensor_type;location;lat;lon;timestamp;P1;durP1;ratioP1;P2;durP2;ratioP2
80241;SDS011;69556;45.004;7.532;2023-10-31T00:00:03;21.70;;;15.10;;
80241;SDS011;69556;45.004;7.532;2023-10-31T00:02:29;18.80;;;12.80;;
80241;SDS011;69556;45.004;7.532;2023-10-31T00:04:54;20.17;;;14.13;;
80241;SDS011;69556;45.004;7.532;2023-10-31T00:07:19;19.60;;;13.00;;
80241;SDS011;69556;45.004;7.532;2023-10-31T00:09:45;19.13;;;13.00;;
80241;SDS011;69556;45.004;7.532;2023-10-31T00:12:10;17.33;;;12.23;;
80241;SDS011;69556;45.004;7.532;2023-10-31T00:14:35;20.25;;;12.43;;
80241;SDS011;69556;45.004;7.532;2023-10-31T00:17:01;17.70;;;11.53;;
80241;SDS011;69556;45.004;7.532;2023-10-31T00:19:26;17.03;;;12.13;;
80241;SDS011;69556;45.004;7.532;2023-10-31T00:21:51;15.38;;;11.00;;
80241;SDS011;69556;45.004;7.532;2023-10-31T00:24:17;12.77;;;9.83;;
80241;SDS011;69556;45.004;7.532;2023-10-31T00:26:42;13.67;;;10.03;;
80241;SDS011;69556;45.004;7.532;2023-10-31T00:29:07;11.60;;;9.30;;
80241;SDS011;69556;45.004;7.532;2023-10-31T00:31:33;14.03;;;9.57;;
80241;SDS011;69556;45.004;7.532;2023-10-31T00:34:00;13.60;;;9.57;;
80241;SDS011;69556;45.004;7.532;2023-10-31T00:36:26;12.25;;;8.52;;
80241;SDS011;69556;45.004;7.532;2023-10-31T00:38:51;12.60;;;8.82;;
80241;SDS011;69556;45.004;7.532;2023-10-31T00:41:17;13.17;;;9.30;;
80241;SDS011;69556;45.004;7.532;2023-10-31T00:43:42;12.63;;;9.33;;
80241;SDS011;69556;45.004;7.532;2023-10-31T00:46:07;13.82;;;8.75;;
80241;SDS011;69556;45.004;7.532;2023-10-31T00:48:33;14.73;;;8.97;;
80241;SDS011;69556;45.004;7.532;2023-10-31T00:51:02;16.73;;;9.63;;
80241;SDS011;69556;45.004;7.532;2023-10-31T00:53:28;12.77;;;8.63;;
80241;SDS011;69556;45.004;7.532;2023-10-31T00:55:53;14.93;;;9.77;;
80241;SDS011;69556;45.004;7.532;2023-10-31T00:58:18;12.13;;;9.20;;
80241;SDS011;69556;45.004;7.532;2023-10-31T01:00:44;13.60;;;9.33;;
80241;SDS011;69556;45.004;7.532;2023-10-31T01:03:09;13.60;;;9.53;;
80241;SDS011;69556;45.004;7.532;2023-10-31T01:05:34;12.33;;;8.90;;
80241;SDS011;69556;45.004;7.532;2023-10-31T01:08:00;13.67;;;9.50;;
80241;SDS011;69556;45.004;7.532;2023-10-31T01:10:25;12.93;;;9.25;;
80241;SDS011;69556;45.004;7.532;2023-10-31T01:12:50;11.97;;;9.00;;
80241;SDS011;69556;45.004;7.532;2023-10-31T01:15:16;12.07;;;9.17;;
80241;SDS011;69556;45.004;7.532;2023-10-31T01:17:41;12.68;;;8.68;;
80241;SDS011;69556;45.004;7.532;2023-10-31T01:20:07;13.68;;;8.65;;
80241;SDS011;69556;45.004;7.532;2023-10-31T01:22:32;12.02;;;8.75;;
80241;SDS011;69556;45.004;7.532;2023-10-31T01:24:58;11.75;;;9.10;;
80241;SDS011;69556;45.004;7.532;2023-10-31T01:27:23;11.53;;;8.50;;
80241;SDS011;69556;45.004;7.532;2023-10-31T01:29:48;16.27;;;9.02;;
80241;SDS011;69556;45.004;7.532;2023-10-31T01:32:14;11.02;;;8.65;;
80241;SDS011;69556;45.004;7.532;2023-10-31T01:34:39;11.30;;;8.68;;
80241;SDS011;69556;45.004;7.532;2023-10-31T01:37:05;14.30;;;8.73;;
80241;SDS011;69556;45.004;7.532;2023-10-31T01:39:30;15.30;;;10.23;;
80241;SDS011;69556;45.004;7.532;2023-10-31T01:41:56;13.43;;;9.18;;
80241;SDS011;69556;45.004;7.532;2023-10-31T01:44:21;13.50;;;9.70;;
80241;SDS011;69556;45.004;7.532;2023-10-31T01:46:46;14.18;;;9.60;;
80241;SDS011;69556;45.004;7.532;2023-10-31T01:49:13;15.70;;;9.52;;
80241;SDS011;69556;45.004;7.532;2023-10-31T01:51:39;14.70;;;8.63;;
80241;SDS011;69556;45.004;7.532;2023-10-31T01:54:06;9.93;;;5.10;;
80241;SDS011;69556;45.004;7.532;2023-10-31T01:56:32;10.25;;;6.63;;
80241;SDS011;69556;45.004;7.532;2023-10-31T01:58:58;11.30;;;7.13;;
80241;SDS011;69556;45.004;7.532;2023-10-31T02:01:23;11.70;;;8.02;;
80241;SDS011;69556;45.004;7.532;2023-10-31T02:03:49;10.60;;;7.85;;
80241;SDS011;69556;45.004;7.532;2023-10-31T02:06:14;10.35;;;7.47;;
80241;SDS011;69556;45.004;7.532;2023-10-31T02:08:40;12.90;;;7.70;;
80241;SDS011;69556;45.004;7.532;2023-10-31T02:11:06;10.27;;;6.78;;
80241;SDS011;69556;45.004;7.532;2023-10-31T02:13:34;7.25;;;5.53;;
80241;SDS011;69556;45.004;7.532;2023-10-31T02:16:00;9.68;;;5.65;;
80241;SDS011;69556;45.004;7.532;2023-10-31T02:18:26;9.70;;;5.78;;
80241;SDS011;69556;45.004;7.532;2023-10-31T02:20:52;8.38;;;4.47;;
80241;SDS011;69556;45.004;7.532;2023-10-31T02:23:17;10.00;;;4.07;;
80241;SDS011;69556;45.004;7.532;2023-10-31T02:25:42;10.48;;;3.97;;
80241;SDS011;69556;45.004;7.532;2023-10-31T02:28:08;7.75;;;3.95;;
80241;SDS011;69556;45.004;7.532;2023-10-31T02:30:34;5.38;;;4.03;;
80241;SDS011;69556;45.004;7.532;2023-10-31T02:33:00;5.00;;;3.30;;
80241;SDS011;69556;45.004;7.532;2023-10-31T02:35:26;5.63;;;3.20;;
80241;SDS011;69556;45.004;7.532;2023-10-31T02:37:52;5.18;;;3.10;;
80241;SDS011;69556;45.004;7.532;2023-10-31T02:40:17;6.35;;;3.22;;
80241;SDS011;69556;45.004;7.532;2023-10-31T02:42:43;5.55;;;3.58;;
80241;SDS011;69556;45.004;7.532;2023-10-31T02:45:09;5.18;;;3.30;;
80241;SDS011;69556;45.004;7.532;2023-10-31T02:47:34;5.72;;;3.67;;
80241;SDS011;69556;45.004;7.532;2023-10-31T02:50:00;4.53;;;3.30;;
80241;SDS011;69556;45.004;7.532;2023-10-31T02:52:25;4.63;;;3.25;;
80241;SDS011;69556;45.004;7.532;2023-10-31T02:54:50;4.23;;;2.97;;
80241;SDS011;69556;45.004;7.532;2023-10-31T02:57:16;4.90;;;3.40;;
80241;SDS011;69556;45.004;7.532;2023-10-31T02:59:41;5.65;;;3.30;;
80241;SDS011;69556;45.004;7.532;2023-10-31T03:02:07;5.78;;;3.17;;
80241;SDS011;69556;45.004;7.532;2023-10-31T03:04:32;6.03;;;3.42;;
80241;SDS011;69556;45.004;7.532;2023-10-31T03:06:58;4.83;;;3.40;;
80241;SDS011;69556;45.004;7.532;2023-10-31T03:09:23;4.93;;;3.38;;
80241;SDS011;69556;45.004;7.532;2023-10-31T03:11:49;4.65;;;3.63;;
80241;SDS011;69556;45.004;7.532;2023-10-31T03:14:14;5.07;;;3.85;;
80241;SDS011;69556;45.004;7.532;2023-10-31T03:16:39;5.90;;;3.83;;
80241;SDS011;69556;45.004;7.532;2023-10-31T03:19:05;5.53;;;3.57;;
80241;SDS011;69556;45.004;7.532;2023-10-31T03:21:30;5.97;;;4.35;;
80241;SDS011;69556;45.004;7.532;2023-10-31T03:23:56;7.43;;;4.38;;
80241;SDS011;69556;45.004;7.532;2023-10-31T03:26:22;6.35;;;4.20;;
80241;SDS011;69556;45.004;7.532;2023-10-31T03:28:47;5.57;;;3.97;;
80241;SDS011;69556;45.004;7.532;2023-10-31T03:31:13;6.72;;;4.35;;
80241;SDS011;69556;45.004;7.532;2023-10-31T03:33:39;7.10;;;5.03;;
80241;SDS011;69556;45.004;7.532;2023-10-31T03:36:04;6.80;;;4.65;;
80241;SDS011;69556;45.004;7.532;2023-10-31T03:38:30;7.40;;;4.50;;
80241;SDS011;69556;45.004;7.532;2023-10-31T03:40:56;7.70;;;4.80;;
80241;SDS011;69556;45.004;7.532;2023-10-31T03:43:21;8.88;;;5.50;;
80241;SDS011;69556;45.004;7.532;2023-10-31T03:45:47;9.07;;;5.75;;
80241;SDS011;69556;45.004;7.532;2023-10-31T03:48:13;8.85;;;5.30;;
80241;SDS011;69556;45.004;7.532;2023-10-31T03:50:39;7.63;;;5.00;;
80241;SDS011;69556;45.004;7.532;2023-10-31T03:53:04;7.88;;;5.53;;
80241;SDS011;69556;45.004;7.532;2023-10-31T03:55:29;7.63;;;5.13;;
80241;SDS011;69556;45.004;7.532;2023-10-31T03:57:57;8.50;;;5.80;;
80241;SDS011;69556;45.004;7.532;2023-10-31T04:00:23;7.37;;;5.27;;
80241;SDS011;69556;45.004;7.532;2023-10-31T04:02:48;6.68;;;5.22;;
80241;SDS011;69556;45.004;7.532;2023-10-31T04:05:13;7.13;;;5.10;;
80241;SDS011;69556;45.004;7.532;2023-10-31T04:07:39;7.82;;;5.15;;
80241;SDS011;69556;45.004;7.532;2023-10-31T04:10:05;9.00;;;5.10;;
80241;SDS011;69556;45.004;7.532;2023-10-31T04:12:31;6.63;;;4.47;;
80241;SDS011;69556;45.004;7.532;2023-10-31T04:14:56;6.38;;;4.78;;
80241;SDS011;69556;45.004;7.532;2023-10-31T04:17:22;12.40;;;4.82;;
80241;SDS011;69556;45.004;7.532;2023-10-31T04:19:47;7.93;;;5.03;;
80241;SDS011;69556;45.004;7.532;2023-10-31T04:22:12;8.77;;;4.90;;
80241;SDS011;69556;45.004;7.532;2023-10-31T04:24:38;7.30;;;5.40;;
80241;SDS011;69556;45.004;7.532;2023-10-31T04:27:03;6.00;;;4.80;;
80241;SDS011;69556;45.004;7.532;2023-10-31T04:29:29;9.18;;;4.50;;
80241;SDS011;69556;45.004;7.532;2023-10-31T04:31:54;9.53;;;5.23;;
80241;SDS011;69556;45.004;7.532;2023-10-31T04:34:19;5.97;;;4.40;;
80241;SDS011;69556;45.004;7.532;2023-10-31T04:36:45;6.03;;;4.25;;
80241;SDS011;69556;45.004;7.532;2023-10-31T04:39:10;8.97;;;4.60;;
80241;SDS011;69556;45.004;7.532;2023-10-31T04:41:35;6.68;;;5.20;;
80241;SDS011;69556;45.004;7.532;2023-10-31T04:44:01;5.93;;;4.13;;
80241;SDS011;69556;45.004;7.532;2023-10-31T04:46:26;6.67;;;4.13;;
80241;SDS011;69556;45.004;7.532;2023-10-31T04:48:52;7.03;;;4.65;;
80241;SDS011;69556;45.004;7.532;2023-10-31T04:51:18;7.60;;;4.82;;
80241;SDS011;69556;45.004;7.532;2023-10-31T04:53:43;8.53;;;5.30;;
80241;SDS011;69556;45.004;7.532;2023-10-31T04:56:12;10.87;;;5.87;;
80241;SDS011;69556;45.004;7.532;2023-10-31T04:58:39;7.88;;;5.55;;
80241;SDS011;69556;45.004;7.532;2023-10-31T05:01:07;8.75;;;5.63;;
80241;SDS011;69556;45.004;7.532;2023-10-31T05:03:33;12.23;;;6.60;;
80241;SDS011;69556;45.004;7.532;2023-10-31T05:05:59;8.50;;;6.50;;
80241;SDS011;69556;45.004;7.532;2023-10-31T05:08:24;8.73;;;6.93;;
80241;SDS011;69556;45.004;7.532;2023-10-31T05:10:49;9.77;;;7.23;;
80241;SDS011;69556;45.004;7.532;2023-10-31T05:13:15;13.37;;;8.20;;
80241;SDS011;69556;45.004;7.532;2023-10-31T05:15:40;10.77;;;7.20;;
80241;SDS011;69556;45.004;7.532;2023-10-31T05:18:06;11.75;;;7.93;;
80241;SDS011;69556;45.004;7.532;2023-10-31T05:20:31;12.07;;;8.40;;
80241;SDS011;69556;45.004;7.532;2023-10-31T05:22:56;12.43;;;8.60;;
80241;SDS011;69556;45.004;7.532;2023-10-31T05:25:21;12.10;;;8.77;;
80241;SDS011;69556;45.004;7.532;2023-10-31T05:27:47;13.38;;;9.02;;
80241;SDS011;69556;45.004;7.532;2023-10-31T05:30:13;13.43;;;9.35;;
80241;SDS011;69556;45.004;7.532;2023-10-31T05:32:39;17.50;;;10.63;;
80241;SDS011;69556;45.004;7.532;2023-10-31T05:35:05;16.02;;;9.68;;
80241;SDS011;69556;45.004;7.532;2023-10-31T05:37:30;16.88;;;9.80;;
80241;SDS011;69556;45.004;7.532;2023-10-31T05:39:55;14.00;;;9.70;;
80241;SDS011;69556;45.004;7.532;2023-10-31T05:42:21;15.80;;;10.67;;
80241;SDS011;69556;45.004;7.532;2023-10-31T05:44:46;15.18;;;10.63;;
80241;SDS011;69556;45.004;7.532;2023-10-31T05:47:11;15.35;;;10.43;;
80241;SDS011;69556;45.004;7.532;2023-10-31T05:49:37;15.63;;;11.00;;
80241;SDS011;69556;45.004;7.532;2023-10-31T05:52:02;17.87;;;10.97;;
80241;SDS011;69556;45.004;7.532;2023-10-31T05:54:28;16.30;;;10.73;;
80241;SDS011;69556;45.004;7.532;2023-10-31T05:56:53;18.07;;;11.87;;
80241;SDS011;69556;45.004;7.532;2023-10-31T05:59:18;16.83;;;11.47;;
80241;SDS011;69556;45.004;7.532;2023-10-31T06:01:44;16.50;;;12.23;;
80241;SDS011;69556;45.004;7.532;2023-10-31T06:04:09;19.20;;;12.33;;
80241;SDS011;69556;45.004;7.532;2023-10-31T06:06:37;18.43;;;12.17;;
80241;SDS011;69556;45.004;7.532;2023-10-31T06:09:04;18.85;;;13.00;;
80241;SDS011;69556;45.004;7.532;2023-10-31T06:11:29;20.45;;;12.40;;
80241;SDS011;69556;45.004;7.532;2023-10-31T06:13:55;15.33;;;10.30;;
80241;SDS011;69556;45.004;7.532;2023-10-31T06:16:20;17.15;;;11.90;;
80241;SDS011;69556;45.004;7.532;2023-10-31T06:18:46;17.15;;;11.82;;
80241;SDS011;69556;45.004;7.532;2023-10-31T06:21:11;16.50;;;10.77;;
80241;SDS011;69556;45.004;7.532;2023-10-31T06:23:37;15.93;;;11.97;;
80241;SDS011;69556;45.004;7.532;2023-10-31T06:26:03;15.45;;;11.25;;
80241;SDS011;69556;45.004;7.532;2023-10-31T06:28:28;17.55;;;12.70;;
80241;SDS011;69556;45.004;7.532;2023-10-31T06:30:54;15.13;;;11.40;;
80241;SDS011;69556;45.004;7.532;2023-10-31T06:33:19;16.20;;;11.93;;
80241;SDS011;69556;45.004;7.532;2023-10-31T06:35:44;18.23;;;11.77;;
80241;SDS011;69556;45.004;7.532;2023-10-31T06:38:10;18.80;;;11.33;;
80241;SDS011;69556;45.004;7.532;2023-10-31T06:40:35;17.13;;;10.03;;
80241;SDS011;69556;45.004;7.532;2023-10-31T06:43:03;13.73;;;9.52;;
80241;SDS011;69556;45.004;7.532;2023-10-31T06:45:29;15.13;;;10.25;;
80241;SDS011;69556;45.004;7.532;2023-10-31T06:47:54;14.07;;;9.82;;
80241;SDS011;69556;45.004;7.532;2023-10-31T06:50:19;13.60;;;9.47;;
80241;SDS011;69556;45.004;7.532;2023-10-31T06:52:45;13.20;;;8.77;;
80241;SDS011;69556;45.004;7.532;2023-10-31T06:55:10;12.17;;;8.30;;
80241;SDS011;69556;45.004;7.532;2023-10-31T06:57:35;10.10;;;7.82;;
80241;SDS011;69556;45.004;7.532;2023-10-31T07:00:01;12.75;;;7.45;;
80241;SDS011;69556;45.004;7.532;2023-10-31T07:02:26;9.45;;;6.88;;
80241;SDS011;69556;45.004;7.532;2023-10-31T07:04:52;12.85;;;7.72;;
80241;SDS011;69556;45.004;7.532;2023-10-31T07:07:17;10.57;;;7.30;;
80241;SDS011;69556;45.004;7.532;2023-10-31T07:09:43;11.10;;;7.53;;
80241;SDS011;69556;45.004;7.532;2023-10-31T07:12:08;11.43;;;8.27;;
80241;SDS011;69556;45.004;7.532;2023-10-31T07:14:33;15.05;;;7.47;;
80241;SDS011;69556;45.004;7.532;2023-10-31T07:16:59;10.60;;;7.60;;
80241;SDS011;69556;45.004;7.532;2023-10-31T07:19:24;11.47;;;6.83;;
80241;SDS011;69556;45.004;7.532;2023-10-31T07:21:50;8.63;;;6.80;;
80241;SDS011;69556;45.004;7.532;2023-10-31T07:24:15;8.95;;;6.57;;
80241;SDS011;69556;45.004;7.532;2023-10-31T07:26:40;9.75;;;7.38;;
80241;SDS011;69556;45.004;7.532;2023-10-31T07:29:06;11.30;;;7.47;;
80241;SDS011;69556;45.004;7.532;2023-10-31T07:31:31;11.20;;;8.23;;
80241;SDS011;69556;45.004;7.532;2023-10-31T07:33:56;11.93;;;7.33;;
80241;SDS011;69556;45.004;7.532;2023-10-31T07:36:22;10.00;;;7.55;;
80241;SDS011;69556;45.004;7.532;2023-10-31T07:38:47;11.15;;;8.02;;
80241;SDS011;69556;45.004;7.532;2023-10-31T07:41:13;11.20;;;8.15;;
80241;SDS011;69556;45.004;7.532;2023-10-31T07:43:38;11.85;;;8.27;;
80241;SDS011;69556;45.004;7.532;2023-10-31T07:46:04;13.38;;;7.93;;
80241;SDS011;69556;45.004;7.532;2023-10-31T07:48:30;13.77;;;7.60;;
80241;SDS011;69556;45.004;7.532;2023-10-31T07:50:56;10.98;;;8.18;;
80241;SDS011;69556;45.004;7.532;2023-10-31T07:53:21;11.68;;;8.48;;
80241;SDS011;69556;45.004;7.532;2023-10-31T07:55:47;15.43;;;8.33;;
80241;SDS011;69556;45.004;7.532;2023-10-31T07:58:12;10.23;;;7.55;;
80241;SDS011;69556;45.004;7.532;2023-10-31T08:00:38;10.50;;;7.13;;
80241;SDS011;69556;45.004;7.532;2023-10-31T08:03:04;11.93;;;7.10;;
80241;SDS011;69556;45.004;7.532;2023-10-31T08:05:29;10.85;;;7.35;;
80241;SDS011;69556;45.004;7.532;2023-10-31T08:07:55;10.32;;;7.30;;
80241;SDS011;69556;45.004;7.532;2023-10-31T08:10:20;9.13;;;6.20;;
80241;SDS011;69556;45.004;7.532;2023-10-31T08:12:45;8.07;;;6.70;;
80241;SDS011;69556;45.004;7.532;2023-10-31T08:15:11;11.67;;;7.00;;
80241;SDS011;69556;45.004;7.532;2023-10-31T08:17:36;9.02;;;6.57;;
80241;SDS011;69556;45.004;7.532;2023-10-31T08:20:02;9.27;;;7.07;;
80241;SDS011;69556;45.004;7.532;2023-10-31T08:22:31;8.77;;;6.35;;
80241;SDS011;69556;45.004;7.532;2023-10-31T08:24:56;9.98;;;6.57;;
80241;SDS011;69556;45.004;7.532;2023-10-31T08:27:22;10.30;;;6.07;;
80241;SDS011;69556;45.004;7.532;2023-10-31T08:29:48;8.43;;;5.75;;
80241;SDS011;69556;45.004;7.532;2023-10-31T08:32:13;7.13;;;4.70;;
80241;SDS011;69556;45.004;7.532;2023-10-31T08:34:38;6.47;;;5.20;;
80241;SDS011;69556;45.004;7.532;2023-10-31T08:37:04;6.57;;;4.88;;
80241;SDS011;69556;45.004;7.532;2023-10-31T08:39:29;5.25;;;4.10;;
80241;SDS011;69556;45.004;7.532;2023-10-31T08:41:56;8.48;;;4.72;;
80241;SDS011;69556;45.004;7.532;2023-10-31T08:44:22;27.55;;;17.33;;
80241;SDS011;69556;45.004;7.532;2023-10-31T08:46:48;25.38;;;15.00;;
80241;SDS011;69556;45.004;7.532;2023-10-31T08:49:16;9.55;;;5.80;;
80241;SDS011;69556;45.004;7.532;2023-10-31T08:51:42;7.60;;;4.82;;
80241;SDS011;69556;45.004;7.532;2023-10-31T08:54:08;13.20;;;8.35;;
80241;SDS011;69556;45.004;7.532;2023-10-31T08:56:34;7.10;;;5.00;;
80241;SDS011;69556;45.004;7.532;2023-10-31T08:59:00;6.28;;;4.20;;
80241;SDS011;69556;45.004;7.532;2023-10-31T09:01:26;5.70;;;3.80;;
80241;SDS011;69556;45.004;7.532;2023-10-31T09:03:54;3.45;;;2.42;;
80241;SDS011;69556;45.004;7.532;2023-10-31T09:06:19;2.92;;;2.08;;
80241;SDS011;69556;45.004;7.532;2023-10-31T09:08:44;3.97;;;2.27;;
80241;SDS011;69556;45.004;7.532;2023-10-31T09:11:10;5.47;;;2.87;;
80241;SDS011;69556;45.004;7.532;2023-10-31T09:13:35;4.57;;;2.80;;
80241;SDS011;69556;45.004;7.532;2023-10-31T09:16:01;3.63;;;2.70;;
80241;SDS011;69556;45.004;7.532;2023-10-31T09:18:26;4.47;;;3.00;;
80241;SDS011;69556;45.004;7.532;2023-10-31T09:20:52;3.40;;;2.80;;
80241;SDS011;69556;45.004;7.532;2023-10-31T09:23:18;4.55;;;3.10;;
80241;SDS011;69556;45.004;7.532;2023-10-31T09:25:43;4.53;;;2.58;;
80241;SDS011;69556;45.004;7.532;2023-10-31T09:28:09;4.50;;;3.22;;
80241;SDS011;69556;45.004;7.532;2023-10-31T09:30:35;3.92;;;2.63;;
80241;SDS011;69556;45.004;7.532;2023-10-31T09:33:00;7.13;;;2.63;;
80241;SDS011;69556;45.004;7.532;2023-10-31T09:35:26;3.53;;;2.13;;
80241;SDS011;69556;45.004;7.532;2023-10-31T09:37:52;3.83;;;2.55;;
80241;SDS011;69556;45.004;7.532;2023-10-31T09:40:17;7.00;;;2.92;;
80241;SDS011;69556;45.004;7.532;2023-10-31T09:42:46;4.85;;;2.42;;
80241;SDS011;69556;45.004;7.532;2023-10-31T09:45:12;3.50;;;2.25;;
80241;SDS011;69556;45.004;7.532;2023-10-31T09:47:38;6.32;;;2.60;;
80241;SDS011;69556;45.004;7.532;2023-10-31T09:50:05;7.20;;;2.67;;
80241;SDS011;69556;45.004;7.532;2023-10-31T09:52:31;2.58;;;2.05;;
80241;SDS011;69556;45.004;7.532;2023-10-31T09:54:57;4.25;;;2.53;;
80241;SDS011;69556;45.004;7.532;2023-10-31T09:57:23;4.05;;;2.67;;
80241;SDS011;69556;45.004;7.532;2023-10-31T09:59:51;7.05;;;2.92;;
80241;SDS011;69556;45.004;7.532;2023-10-31T10:02:16;3.85;;;2.55;;
80241;SDS011;69556;45.004;7.532;2023-10-31T10:04:42;16.40;;;5.72;;
80241;SDS011;69556;45.004;7.532;2023-10-31T10:07:07;13.63;;;4.97;;
80241;SDS011;69556;45.004;7.532;2023-10-31T10:09:33;5.45;;;2.22;;
80241;SDS011;69556;45.004;7.532;2023-10-31T10:11:58;5.55;;;2.25;;
80241;SDS011;69556;45.004;7.532;2023-10-31T10:14:25;5.47;;;2.72;;
80241;SDS011;69556;45.004;7.532;2023-10-31T10:16:56;8.15;;;2.28;;
80241;SDS011;69556;45.004;7.532;2023-10-31T10:19:22;3.05;;;2.42;;
80241;SDS011;69556;45.004;7.532;2023-10-31T10:21:49;6.15;;;2.30;;
80241;SDS011;69556;45.004;7.532;2023-10-31T10:24:19;4.40;;;2.75;;
80241;SDS011;69556;45.004;7.532;2023-10-31T10:26:45;5.20;;;3.05;;
80241;SDS011;69556;45.004;7.532;2023-10-31T10:29:11;2.97;;;2.22;;
80241;SDS011;69556;45.004;7.532;2023-10-31T10:31:37;2.72;;;2.20;;
80241;SDS011;69556;45.004;7.532;2023-10-31T10:34:02;3.08;;;2.03;;
80241;SDS011;69556;45.004;7.532;2023-10-31T10:36:28;4.65;;;2.05;;
80241;SDS011;69556;45.004;7.532;2023-10-31T10:38:56;8.35;;;2.47;;
80241;SDS011;69556;45.004;7.532;2023-10-31T10:41:25;5.65;;;2.17;;
80241;SDS011;69556;45.004;7.532;2023-10-31T10:43:56;3.58;;;2.33;;
80241;SDS011;69556;45.004;7.532;2023-10-31T10:46:31;3.13;;;2.15;;
80241;SDS011;69556;45.004;7.532;2023-10-31T10:48:59;2.90;;;2.15;;
80241;SDS011;69556;45.004;7.532;2023-10-31T10:54:26;4.82;;;2.00;;
80241;SDS011;69556;45.004;7.532;2023-10-31T10:57:10;12.45;;;2.50;;
80241;SDS011;69556;45.004;7.532;2023-10-31T10:59:41;3.92;;;2.10;;
80241;SDS011;69556;45.004;7.532;2023-10-31T11:02:15;3.00;;;2.20;;
80241;SDS011;69556;45.004;7.532;2023-10-31T11:04:42;4.03;;;1.98;;
80241;SDS011;69556;45.004;7.532;2023-10-31T11:07:08;3.20;;;2.10;;
80241;SDS011;69556;45.004;7.532;2023-10-31T11:09:34;3.00;;;2.05;;
80241;SDS011;69556;45.004;7.532;2023-10-31T11:12:01;4.05;;;2.10;;
80241;SDS011;69556;45.004;7.532;2023-10-31T11:14:27;3.85;;;2.15;;
80241;SDS011;69556;45.004;7.532;2023-10-31T11:16:55;3.38;;;2.22;;
80241;SDS011;69556;45.004;7.532;2023-10-31T11:19:25;5.78;;;2.58;;
80241;SDS011;69556;45.004;7.532;2023-10-31T11:21:58;7.47;;;4.95;;
80241;SDS011;69556;45.004;7.532;2023-10-31T11:24:31;7.28;;;3.63;;
80241;SDS011;69556;45.004;7.532;2023-10-31T11:26:59;4.53;;;2.78;;
80241;SDS011;69556;45.004;7.532;2023-10-31T11:29:26;4.57;;;2.72;;
80241;SDS011;69556;45.004;7.532;2023-10-31T11:31:53;3.97;;;2.55;;
80241;SDS011;69556;45.004;7.532;2023-10-31T11:34:20;2.85;;;1.85;;
80241;SDS011;69556;45.004;7.532;2023-10-31T11:36:46;2.85;;;1.98;;
80241;SDS011;69556;45.004;7.532;2023-10-31T11:39:15;5.95;;;1.95;;
80241;SDS011;69556;45.004;7.532;2023-10-31T11:41:54;3.80;;;1.88;;
80241;SDS011;69556;45.004;7.532;2023-10-31T11:44:26;3.20;;;2.20;;
80241;SDS011;69556;45.004;7.532;2023-10-31T11:46:52;2.45;;;1.92;;
80241;SDS011;69556;45.004;7.532;2023-10-31T11:52:16;2.53;;;1.55;;
80241;SDS011;69556;45.004;7.532;2023-10-31T11:54:42;2.30;;;1.70;;
80241;SDS011;69556;45.004;7.532;2023-10-31T11:57:08;3.00;;;1.38;;
80241;SDS011;69556;45.004;7.532;2023-10-31T11:59:51;5.53;;;1.48;;
80241;SDS011;69556;45.004;7.532;2023-10-31T12:02:16;6.35;;;1.52;;
80241;SDS011;69556;45.004;7.532;2023-10-31T12:04:43;3.15;;;1.90;;
80241;SDS011;69556;45.004;7.532;2023-10-31T12:07:08;7.18;;;2.10;;
80241;SDS011;69556;45.004;7.532;2023-10-31T12:09:45;2.83;;;1.83;;
80241;SDS011;69556;45.004;7.532;2023-10-31T12:12:13;2.65;;;1.60;;
80241;SDS011;69556;45.004;7.532;2023-10-31T12:14:39;2.35;;;1.60;;
80241;SDS011;69556;45.004;7.532;2023-10-31T12:17:04;2.13;;;1.60;;
80241;SDS011;69556;45.004;7.532;2023-10-31T12:19:31;2.08;;;1.52;;
80241;SDS011;69556;45.004;7.532;2023-10-31T12:21:57;10.07;;;2.05;;
80241;SDS011;69556;45.004;7.532;2023-10-31T12:24:22;2.20;;;1.70;;
80241;SDS011;69556;45.004;7.532;2023-10-31T12:26:48;3.08;;;2.03;;
80241;SDS011;69556;45.004;7.532;2023-10-31T12:29:14;2.80;;;1.85;;
80241;SDS011;69556;45.004;7.532;2023-10-31T12:31:48;11.27;;;5.95;;
80241;SDS011;69556;45.004;7.532;2023-10-31T12:34:18;14.98;;;9.02;;
80241;SDS011;69556;45.004;7.532;2023-10-31T12:36:45;3.35;;;2.33;;
80241;SDS011;69556;45.004;7.532;2023-10-31T12:39:12;3.53;;;1.80;;
80241;SDS011;69556;45.004;7.532;2023-10-31T12:41:38;2.80;;;1.90;;
80241;SDS011;69556;45.004;7.532;2023-10-31T12:44:05;3.33;;;1.88;;
80241;SDS011;69556;45.004;7.532;2023-10-31T12:46:32;4.75;;;1.77;;
80241;SDS011;69556;45.004;7.532;2023-10-31T12:48:58;6.10;;;2.30;;
80241;SDS011;69556;45.004;7.532;2023-10-31T12:51:23;1.95;;;1.75;;
80241;SDS011;69556;45.004;7.532;2023-10-31T12:53:52;3.20;;;2.00;;
80241;SDS011;69556;45.004;7.532;2023-10-31T12:59:04;3.58;;;2.22;;
80241;SDS011;69556;45.004;7.532;2023-10-31T13:01:38;5.57;;;2.35;;
80241;SDS011;69556;45.004;7.532;2023-10-31T13:04:08;2.50;;;2.10;;
80241;SDS011;69556;45.004;7.532;2023-10-31T13:06:33;4.53;;;1.88;;
80241;SDS011;69556;45.004;7.532;2023-10-31T13:08:58;9.32;;;5.75;;
80241;SDS011;69556;45.004;7.532;2023-10-31T13:11:28;3.88;;;2.80;;
80241;SDS011;69556;45.004;7.532;2023-10-31T13:13:54;4.35;;;2.20;;
80241;SDS011;69556;45.004;7.532;2023-10-31T13:16:20;3.13;;;1.90;;
80241;SDS011;69556;45.004;7.532;2023-10-31T13:18:45;4.97;;;2.85;;
80241;SDS011;69556;45.004;7.532;2023-10-31T13:21:11;3.50;;;2.08;;
80241;SDS011;69556;45.004;7.532;2023-10-31T13:23:39;4.22;;;2.40;;
80241;SDS011;69556;45.004;7.532;2023-10-31T13:26:07;3.30;;;1.80;;
80241;SDS011;69556;45.004;7.532;2023-10-31T13:28:32;5.57;;;2.27;;
80241;SDS011;69556;45.004;7.532;2023-10-31T13:30:59;3.65;;;1.40;;
80241;SDS011;69556;45.004;7.532;2023-10-31T13:33:25;3.08;;;1.80;;
80241;SDS011;69556;45.004;7.532;2023-10-31T13:35:51;3.05;;;1.70;;
80241;SDS011;69556;45.004;7.532;2023-10-31T13:38:16;7.97;;;4.53;;
80241;SDS011;69556;45.004;7.532;2023-10-31T13:40:41;18.83;;;9.30;;
80241;SDS011;69556;45.004;7.532;2023-10-31T13:43:07;3.20;;;2.17;;
80241;SDS011;69556;45.004;7.532;2023-10-31T13:45:33;4.95;;;1.70;;
80241;SDS011;69556;45.004;7.532;2023-10-31T13:47:58;3.33;;;1.80;;
80241;SDS011;69556;45.004;7.532;2023-10-31T13:50:24;2.33;;;1.58;;
80241;SDS011;69556;45.004;7.532;2023-10-31T13:52:49;3.70;;;1.97;;
80241;SDS011;69556;45.004;7.532;2023-10-31T13:55:14;2.15;;;1.63;;
80241;SDS011;69556;45.004;7.532;2023-10-31T13:57:40;2.00;;;1.40;;
80241;SDS011;69556;45.004;7.532;2023-10-31T14:00:06;3.50;;;1.58;;
80241;SDS011;69556;45.004;7.532;2023-10-31T14:05:00;5.10;;;1.67;;
80241;SDS011;69556;45.004;7.532;2023-10-31T14:07:25;9.57;;;1.90;;
80241;SDS011;69556;45.004;7.532;2023-10-31T14:09:51;3.55;;;1.65;;
80241;SDS011;69556;45.004;7.532;2023-10-31T14:12:18;2.22;;;1.52;;
80241;SDS011;69556;45.004;7.532;2023-10-31T14:14:43;4.70;;;1.27;;
80241;SDS011;69556;45.004;7.532;2023-10-31T14:17:09;1.42;;;1.30;;
80241;SDS011;69556;45.004;7.532;2023-10-31T14:19:36;6.88;;;1.70;;
80241;SDS011;69556;45.004;7.532;2023-10-31T14:22:01;6.83;;;1.43;;
80241;SDS011;69556;45.004;7.532;2023-10-31T14:24:27;2.10;;;1.35;;
80241;SDS011;69556;45.004;7.532;2023-10-31T14:26:52;1.80;;;1.33;;
80241;SDS011;69556;45.004;7.532;2023-10-31T14:29:18;2.60;;;1.50;;
80241;SDS011;69556;45.004;7.532;2023-10-31T14:31:44;5.07;;;1.30;;
80241;SDS011;69556;45.004;7.532;2023-10-31T14:34:09;1.85;;;1.60;;
80241;SDS011;69556;45.004;7.532;2023-10-31T14:36:35;3.22;;;1.70;;
80241;SDS011;69556;45.004;7.532;2023-10-31T14:39:00;3.72;;;1.50;;
80241;SDS011;69556;45.004;7.532;2023-10-31T14:41:26;5.53;;;4.23;;
80241;SDS011;69556;45.004;7.532;2023-10-31T14:43:51;3.93;;;2.43;;